createdAt,value
2023-03-30T00:00:41.931Z,47.77
2023-03-30T00:03:16.499Z,46.97
2023-03-30T00:05:58.279Z,47.63
2023-03-30T00:08:34.683Z,48.20
2023-03-30T00:11:13.261Z,47.13
2023-03-30T00:13:47.720Z,48.83
2023-03-30T00:16:22.159Z,47.10
2023-03-30T00:18:59.277Z,48.03
2023-03-30T00:21:36.941Z,48.23
2023-03-30T00:24:16.235Z,46.33
2023-03-30T00:26:52.953Z,46.40
2023-03-30T00:29:26.636Z,46.57
2023-03-30T00:32:02.805Z,46.13
2023-03-30T00:34:36.848Z,45.63
2023-03-30T00:37:15.060Z,44.20
2023-03-30T00:39:50.858Z,43.70
2023-03-30T00:42:28.165Z,42.07
2023-03-30T00:45:27.100Z,43.13
2023-03-30T00:48:15.268Z,43.73
2023-03-30T00:50:55.794Z,42.87
2023-03-30T00:53:38.663Z,43.07
2023-03-30T00:56:14.364Z,41.67
2023-03-30T00:58:57.903Z,43.30
2023-03-30T01:01:33.296Z,41.67
2023-03-30T01:04:16.884Z,43.70
2023-03-30T01:06:57.215Z,41.37
2023-03-30T01:09:50.298Z,44.30
2023-03-30T01:12:25.740Z,43.43
2023-03-30T01:15:04.725Z,42.57
2023-03-30T01:17:53.701Z,42.17
2023-03-30T01:21:09.692Z,41.40
2023-03-30T01:24:29.165Z,43.50
2023-03-30T01:27:28.838Z,43.67
2023-03-30T01:30:21.608Z,44.67
2023-03-30T01:33:30.132Z,43.53
2023-03-30T01:36:42.973Z,42.83
2023-03-30T01:39:46.456Z,43.40
2023-03-30T01:42:25.955Z,42.30
2023-03-30T01:45:14.910Z,42.93
2023-03-30T01:47:59.929Z,42.53
2023-03-30T01:50:42.026Z,41.03
2023-03-30T01:53:26.573Z,41.47
2023-03-30T01:56:10.999Z,44.57
2023-03-30T01:58:54.525Z,41.80
2023-03-30T02:01:31.099Z,41.47
2023-03-30T02:04:11.152Z,42.87
2023-03-30T02:06:49.546Z,42.00
2023-03-30T02:09:37.052Z,45.03
2023-03-30T02:12:22.494Z,45.27
2023-03-30T02:15:00.567Z,41.20
2023-03-30T02:17:37.548Z,45.80
2023-03-30T02:20:26.654Z,44.10
2023-03-30T02:23:10.401Z,49.63
2023-03-30T02:25:46.855Z,45.77
2023-03-30T02:28:27.217Z,48.67
2023-03-30T02:31:04.416Z,45.23
2023-03-30T02:33:54.532Z,50.17
2023-03-30T02:36:52.594Z,45.73
2023-03-30T02:39:47.090Z,46.60
2023-03-30T02:42:46.762Z,47.73
2023-03-30T02:45:44.408Z,47.77
2023-03-30T02:48:47.002Z,47.67
2023-03-30T02:51:40.087Z,47.87
2023-03-30T02:54:43.320Z,47.13
2023-03-30T02:57:56.096Z,46.13
2023-03-30T03:01:20.990Z,46.03
2023-03-30T03:04:07.949Z,47.57
2023-03-30T03:07:04.679Z,47.23
2023-03-30T03:09:43.242Z,48.27
2023-03-30T03:12:21.158Z,52.23
2023-03-30T03:14:57.784Z,50.63
2023-03-30T03:17:36.772Z,51.67
2023-03-30T03:20:13.689Z,49.20
2023-03-30T03:22:47.898Z,48.90
2023-03-30T03:25:28.996Z,50.17
2023-03-30T03:28:22.142Z,47.00
2023-03-30T03:31:10.842Z,48.47
2023-03-30T03:33:54.916Z,46.00
2023-03-30T03:36:37.850Z,49.83
2023-03-30T03:39:14.598Z,52.77
2023-03-30T03:41:49.558Z,49.27
2023-03-30T03:44:24.206Z,48.13
2023-03-30T03:47:00.604Z,48.73
2023-03-30T03:49:39.681Z,52.87
2023-03-30T03:52:24.579Z,48.87
2023-03-30T03:55:04.087Z,54.17
2023-03-30T03:57:47.990Z,52.37
2023-03-30T04:00:34.630Z,50.43
2023-03-30T04:03:15.573Z,52.63
2023-03-30T04:05:54.186Z,52.73
2023-03-30T04:08:30.818Z,52.53
2023-03-30T04:11:37.133Z,54.20
2023-03-30T04:14:33.196Z,52.70
2023-03-30T04:17:27.338Z,49.70
2023-03-30T04:20:25.024Z,48.13
2023-03-30T04:23:52.830Z,51.90
2023-03-30T04:26:34.956Z,49.13
2023-03-30T04:29:41.813Z,49.10
2023-03-30T04:32:48.084Z,49.17
2023-03-30T04:35:52.955Z,43.60
2023-03-30T04:39:19.938Z,46.00
2023-03-30T04:42:25.791Z,48.57
2023-03-30T04:45:37.578Z,38.23
2023-03-30T04:48:16.177Z,42.00
2023-03-30T04:51:19.482Z,41.80
2023-03-30T04:54:16.642Z,43.10
2023-03-30T04:57:30.228Z,41.00
2023-03-30T05:00:29.224Z,38.83
2023-03-30T05:04:11.387Z,41.73
2023-03-30T05:07:09.741Z,40.27
2023-03-30T05:10:12.907Z,37.63
2023-03-30T05:12:53.725Z,39.83
2023-03-30T05:15:50.529Z,37.47
2023-03-30T05:18:57.156Z,38.43
2023-03-30T05:21:53.916Z,41.33
2023-03-30T05:25:00.332Z,38.83
2023-03-30T05:28:01.853Z,41.77
2023-03-30T05:31:04.203Z,36.10
2023-03-30T05:34:11.628Z,42.90
2023-03-30T05:37:18.852Z,40.43
2023-03-30T05:40:18.638Z,38.40
2023-03-30T05:43:16.342Z,39.67
2023-03-30T05:46:24.604Z,40.73
2023-03-30T05:49:27.867Z,39.40
2023-03-30T05:52:26.955Z,40.63
2023-03-30T05:55:22.669Z,39.00
2023-03-30T05:58:20.257Z,40.53
2023-03-30T06:01:29.911Z,39.10
2023-03-30T06:04:08.951Z,36.30
2023-03-30T06:06:54.451Z,35.60
2023-03-30T06:09:44.026Z,35.20
2023-03-30T06:12:33.447Z,35.93
2023-03-30T06:15:24.737Z,37.00
2023-03-30T06:18:12.254Z,36.53
2023-03-30T06:20:59.042Z,35.70
2023-03-30T06:23:42.648Z,34.03
2023-03-30T06:26:44.308Z,33.20
2023-03-30T06:29:25.905Z,36.37
2023-03-30T06:32:07.438Z,34.60
2023-03-30T06:35:16.970Z,32.90
2023-03-30T06:37:58.457Z,29.50
2023-03-30T06:40:36.870Z,28.10
2023-03-30T06:43:16.320Z,28.67
2023-03-30T06:46:11.089Z,28.67
2023-03-30T06:48:56.619Z,34.17
2023-03-30T06:51:52.480Z,32.60
2023-03-30T06:54:31.860Z,36.53
2023-03-30T06:57:18.261Z,37.70
2023-03-30T07:00:08.174Z,35.00
2023-03-30T07:03:03.464Z,32.10
2023-03-30T07:06:10.065Z,34.00
2023-03-30T07:08:46.457Z,30.37
2023-03-30T07:11:47.528Z,40.43
2023-03-30T07:14:44.330Z,39.93
2023-03-30T07:17:18.145Z,46.13
2023-03-30T07:19:56.988Z,42.87
2023-03-30T07:22:41.821Z,41.83
2023-03-30T07:25:21.428Z,42.77
2023-03-30T07:28:04.139Z,43.33
2023-03-30T07:30:44.538Z,43.33
2023-03-30T07:33:23.452Z,42.40
2023-03-30T07:36:02.157Z,42.63
2023-03-30T07:38:48.657Z,41.67
2023-03-30T07:41:25.744Z,41.83
2023-03-30T07:44:11.466Z,40.87
2023-03-30T07:46:47.926Z,42.97
2023-03-30T07:49:41.582Z,43.67
2023-03-30T07:52:17.360Z,43.03
2023-03-30T07:55:03.351Z,40.03
2023-03-30T07:57:55.405Z,42.70
2023-03-30T08:00:32.616Z,42.70
2023-03-30T08:03:35.805Z,43.57
2023-03-30T08:06:16.488Z,41.87
2023-03-30T08:09:07.769Z,43.77
2023-03-30T08:11:59.569Z,41.90
2023-03-30T08:14:37.733Z,43.37
2023-03-30T08:17:15.061Z,41.03
2023-03-30T08:19:53.085Z,40.20
2023-03-30T08:22:29.554Z,42.47
2023-03-30T08:25:05.857Z,41.37
2023-03-30T08:27:47.982Z,39.43
2023-03-30T08:30:35.440Z,40.57
2023-03-30T08:33:14.972Z,42.30
2023-03-30T08:35:54.210Z,44.10
2023-03-30T08:38:29.833Z,40.70
2023-03-30T08:41:30.223Z,43.23
2023-03-30T08:44:18.644Z,44.77
2023-03-30T08:46:56.641Z,46.70
2023-03-30T08:49:42.323Z,43.33
2023-03-30T08:52:23.178Z,44.20
2023-03-30T08:55:06.512Z,43.90
2023-03-30T08:57:57.715Z,44.83
2023-03-30T09:00:48.469Z,46.83
2023-03-30T09:03:32.194Z,46.87
2023-03-30T09:06:17.916Z,47.83
2023-03-30T09:08:56.164Z,46.70
2023-03-30T09:11:37.588Z,47.17
2023-03-30T09:14:18.144Z,46.70
2023-03-30T09:16:59.858Z,46.10
2023-03-30T09:19:53.424Z,47.53
2023-03-30T09:22:41.481Z,45.87
2023-03-30T09:25:21.739Z,44.97
2023-03-30T09:28:14.463Z,45.20
2023-03-30T09:30:51.178Z,45.00
2023-03-30T09:33:37.834Z,44.20
2023-03-30T09:36:34.312Z,45.63
2023-03-30T09:39:16.633Z,46.77
2023-03-30T09:42:16.513Z,42.83
2023-03-30T09:44:57.607Z,41.00
2023-03-30T09:47:41.102Z,42.30
2023-03-30T09:50:30.978Z,45.53
2023-03-30T09:53:30.882Z,43.93
2023-03-30T09:56:23.830Z,44.07
2023-03-30T09:59:01.617Z,42.17
2023-03-30T10:01:44.359Z,43.27
2023-03-30T10:04:26.753Z,41.47
2023-03-30T10:07:25.453Z,45.77
2023-03-30T10:10:16.287Z,43.20
2023-03-30T10:13:02.336Z,42.80
2023-03-30T10:15:47.628Z,44.37
2023-03-30T10:18:31.359Z,43.37
2023-03-30T10:21:14.766Z,43.10
2023-03-30T10:24:06.120Z,41.00
2023-03-30T10:26:47.724Z,43.37
2023-03-30T10:29:33.969Z,44.60
2023-03-30T10:32:19.544Z,42.50
2023-03-30T10:35:04.471Z,44.17
2023-03-30T10:37:44.886Z,43.97
2023-03-30T10:40:25.047Z,44.03
2023-03-30T10:43:02.697Z,44.03
2023-03-30T10:45:46.613Z,43.50
2023-03-30T10:48:42.553Z,42.33
2023-03-30T10:51:30.060Z,43.60
2023-03-30T10:54:15.337Z,44.30
2023-03-30T10:57:03.025Z,43.57
2023-03-30T11:00:18.574Z,44.20
2023-03-30T11:03:04.353Z,44.67
2023-03-30T11:05:50.813Z,42.63
2023-03-30T11:08:42.562Z,41.73
2023-03-30T11:11:24.972Z,44.50
2023-03-30T11:14:13.922Z,44.67
2023-03-30T11:16:56.748Z,43.17
2023-03-30T11:19:59.862Z,42.57
2023-03-30T11:22:53.409Z,42.10
2023-03-30T11:25:39.553Z,42.17
2023-03-30T11:28:22.554Z,41.23
2023-03-30T11:31:12.581Z,45.63
2023-03-30T11:33:57.604Z,43.00
2023-03-30T11:36:52.896Z,43.00
2023-03-30T11:39:53.949Z,43.43
2023-03-30T11:42:35.373Z,42.73
2023-03-30T11:45:23.164Z,44.27
2023-03-30T11:49:05.558Z,45.30
2023-03-30T11:52:26.966Z,43.50
2023-03-30T11:55:35.479Z,42.90
2023-03-30T11:58:31.785Z,42.17
2023-03-30T12:01:26.180Z,42.77
2023-03-30T12:04:15.593Z,43.97
2023-03-30T12:06:59.592Z,42.70
2023-03-30T12:09:52.155Z,40.03
2023-03-30T12:12:33.992Z,41.77
2023-03-30T12:15:34.981Z,39.47
2023-03-30T12:18:18.427Z,41.30
2023-03-30T12:21:16.899Z,42.43
2023-03-30T12:24:11.517Z,44.13
2023-03-30T12:27:06.194Z,41.93
2023-03-30T12:30:07.848Z,45.00
2023-03-30T12:33:08.066Z,45.57
2023-03-30T12:36:18.304Z,44.60
2023-03-30T12:39:04.093Z,44.10
2023-03-30T12:42:10.806Z,46.10
2023-03-30T12:45:26.000Z,45.90
2023-03-30T12:48:30.157Z,47.27
2023-03-30T12:51:49.269Z,46.67
2023-03-30T12:54:56.613Z,44.20
2023-03-30T12:58:37.145Z,46.03
2023-03-30T13:05:04.857Z,44.80
2023-03-30T13:07:45.897Z,44.73
2023-03-30T13:10:51.354Z,44.03
2023-03-30T13:13:55.326Z,44.87
2023-03-30T13:17:17.261Z,45.13
2023-03-30T13:20:28.428Z,44.00
2023-03-30T13:23:44.440Z,42.77
2023-03-30T13:26:59.521Z,43.67
2023-03-30T13:29:40.000Z,45.80
2023-03-30T13:32:35.522Z,46.00
2023-03-30T13:35:49.695Z,45.10
2023-03-30T13:38:57.122Z,44.27
2023-03-30T13:41:54.792Z,43.67
2023-03-30T13:45:08.460Z,43.77
2023-03-30T13:48:07.895Z,45.87
2023-03-30T13:50:56.372Z,45.40
2023-03-30T13:53:44.364Z,44.77
2023-03-30T13:56:20.537Z,43.87
2023-03-30T13:59:11.581Z,43.57
2023-03-30T14:01:58.653Z,44.13
2023-03-30T14:04:46.020Z,44.43
2023-03-30T14:07:43.597Z,45.73
2023-03-30T14:10:41.186Z,44.90
2023-03-30T14:13:18.010Z,45.30
2023-03-30T14:15:58.039Z,44.90
2023-03-30T14:18:38.553Z,44.77
2023-03-30T14:21:28.278Z,45.40
2023-03-30T14:24:28.943Z,45.73
2023-03-30T14:27:12.922Z,45.13
2023-03-30T14:30:14.259Z,44.97
2023-03-30T14:33:23.703Z,42.93
2023-03-30T14:36:15.065Z,42.90
2023-03-30T14:39:13.215Z,44.63
2023-03-30T14:41:59.836Z,43.53
2023-03-30T14:44:41.067Z,44.73
2023-03-30T14:47:22.425Z,46.53
2023-03-30T14:50:16.076Z,46.70
2023-03-30T14:53:05.991Z,46.40
2023-03-30T14:55:48.532Z,44.93
2023-03-30T14:58:33.813Z,45.83
2023-03-30T15:01:20.609Z,46.97
2023-03-30T15:03:58.087Z,45.07
2023-03-30T15:07:03.647Z,46.40
2023-03-30T15:09:59.987Z,46.73
2023-03-30T15:12:40.311Z,46.43
2023-03-30T15:15:31.628Z,45.73
2023-03-30T15:18:17.292Z,46.13
2023-03-30T15:21:01.195Z,46.70
2023-03-30T15:24:08.345Z,46.43
2023-03-30T15:26:50.389Z,45.53
2023-03-30T15:29:30.669Z,46.10
2023-03-30T15:32:22.518Z,46.80
2023-03-30T15:35:19.830Z,46.00
2023-03-30T15:38:10.558Z,46.97
2023-03-30T15:41:04.281Z,48.50
2023-03-30T15:44:03.730Z,48.57
2023-03-30T15:46:42.749Z,46.10
2023-03-30T15:49:37.463Z,46.03
2023-03-30T15:52:28.858Z,46.67
2023-03-30T15:55:12.606Z,45.97
2023-03-30T15:57:58.181Z,47.93
2023-03-30T16:01:16.127Z,47.73
2023-03-30T16:04:06.231Z,47.43
2023-03-30T16:06:47.872Z,46.63
2023-03-30T16:09:26.393Z,46.63
2023-03-30T16:12:08.077Z,46.40
2023-03-30T16:15:08.921Z,46.77
2023-03-30T16:17:48.094Z,44.90
2023-03-30T16:20:31.949Z,46.57
2023-03-30T16:23:27.826Z,45.30
2023-03-30T16:26:12.099Z,45.10
2023-03-30T16:28:52.372Z,45.77
2023-03-30T16:31:41.150Z,46.20
2023-03-30T16:34:20.959Z,46.73
2023-03-30T16:37:02.614Z,45.07
2023-03-30T16:39:40.606Z,44.90
2023-03-30T16:42:24.602Z,44.70
2023-03-30T16:45:04.161Z,44.27
2023-03-30T16:47:45.946Z,43.77
2023-03-30T16:50:32.595Z,44.60
2023-03-30T16:53:08.515Z,45.50
2023-03-30T16:55:51.753Z,44.80
2023-03-30T16:58:27.171Z,44.63
2023-03-30T17:01:14.585Z,41.47
2023-03-30T17:03:51.127Z,44.37
2023-03-30T17:06:33.972Z,44.47
2023-03-30T17:09:12.307Z,40.73
2023-03-30T17:11:48.381Z,45.13
2023-03-30T17:14:32.058Z,43.17
2023-03-30T17:17:09.035Z,45.10
2023-03-30T17:19:46.719Z,43.70
2023-03-30T17:22:31.352Z,43.27
2023-03-30T17:25:28.061Z,42.87
2023-03-30T17:28:10.030Z,43.47
2023-03-30T17:30:51.115Z,44.50
2023-03-30T17:33:29.774Z,46.07
2023-03-30T17:36:14.128Z,46.53
2023-03-30T17:38:49.606Z,45.43
2023-03-30T17:41:25.580Z,44.43
2023-03-30T17:43:59.681Z,45.27
2023-03-30T17:46:37.810Z,42.33
2023-03-30T17:49:23.671Z,44.13
2023-03-30T17:52:00.043Z,43.93
2023-03-30T17:54:42.914Z,43.80
2023-03-30T17:57:23.941Z,45.37
2023-03-30T18:00:02.802Z,44.17
2023-03-30T18:02:37.949Z,42.70
2023-03-30T18:05:13.195Z,42.23
2023-03-30T18:07:49.537Z,42.90
2023-03-30T18:10:28.426Z,43.13
2023-03-30T18:13:07.046Z,45.50
2023-03-30T18:15:42.481Z,44.37
2023-03-30T18:18:26.112Z,44.83
2023-03-30T18:21:00.755Z,45.83
2023-03-30T18:23:39.017Z,48.07
2023-03-30T18:26:17.176Z,44.10
2023-03-30T18:28:52.361Z,44.80
2023-03-30T18:31:29.979Z,45.00
2023-03-30T18:34:08.856Z,45.00
2023-03-30T18:36:42.744Z,45.77
2023-03-30T18:39:25.933Z,45.40
2023-03-30T18:41:58.820Z,43.67
2023-03-30T18:44:35.766Z,45.70
2023-03-30T18:47:09.586Z,45.73
2023-03-30T18:49:43.723Z,47.07
2023-03-30T18:52:18.037Z,48.90
2023-03-30T18:54:53.853Z,45.00
2023-03-30T18:57:27.866Z,44.40
2023-03-30T19:00:10.100Z,44.23
2023-03-30T19:02:45.150Z,48.87
2023-03-30T19:05:20.515Z,46.53
2023-03-30T19:07:54.633Z,46.30
2023-03-30T19:10:33.166Z,45.63
2023-03-30T19:13:06.973Z,44.20
2023-03-30T19:15:41.394Z,44.97
2023-03-30T19:18:16.307Z,44.83
2023-03-30T19:20:52.315Z,44.80
2023-03-30T19:23:26.632Z,45.77
2023-03-30T19:26:01.571Z,47.27
2023-03-30T19:28:35.595Z,45.87
2023-03-30T19:31:13.669Z,45.17
2023-03-30T19:33:48.369Z,45.40
2023-03-30T19:36:25.137Z,44.30
2023-03-30T19:38:59.970Z,44.80
2023-03-30T19:41:35.065Z,44.60
2023-03-30T19:44:08.064Z,44.30
2023-03-30T19:46:42.150Z,43.37
2023-03-30T19:49:16.800Z,44.70
2023-03-30T19:51:51.261Z,43.70
2023-03-30T19:54:26.138Z,44.87
2023-03-30T19:57:01.267Z,43.20
2023-03-30T19:59:34.744Z,43.77
2023-03-30T20:02:07.938Z,45.80
2023-03-30T20:04:41.840Z,44.20
2023-03-30T20:07:15.297Z,43.70
2023-03-30T20:09:49.218Z,44.57
2023-03-30T20:12:25.039Z,44.47
2023-03-30T20:15:00.190Z,43.40
2023-03-30T20:17:33.940Z,42.10
2023-03-30T20:20:10.541Z,40.57
2023-03-30T20:22:46.653Z,40.87
2023-03-30T20:25:20.747Z,40.27
2023-03-30T20:27:57.241Z,40.60
2023-03-30T20:30:30.386Z,39.83
2023-03-30T20:33:08.100Z,42.90
2023-03-30T20:35:41.903Z,43.53
2023-03-30T20:38:15.994Z,41.63
2023-03-30T20:40:58.911Z,41.83
2023-03-30T20:43:40.670Z,42.83
2023-03-30T20:46:27.381Z,43.60
2023-03-30T20:49:03.457Z,41.80
2023-03-30T20:51:39.814Z,41.73
2023-03-30T20:54:14.713Z,42.33
2023-03-30T20:56:49.943Z,43.57
2023-03-30T20:59:25.793Z,41.77
2023-03-30T21:02:01.364Z,41.53
2023-03-30T21:04:37.429Z,41.27
2023-03-30T21:07:11.687Z,42.33
2023-03-30T21:09:46.553Z,42.33
2023-03-30T21:12:20.652Z,42.13
2023-03-30T21:14:55.742Z,43.33
2023-03-30T21:17:29.578Z,41.90
2023-03-30T21:20:03.154Z,41.43
2023-03-30T21:22:37.224Z,41.90
2023-03-30T21:25:11.535Z,42.07
2023-03-30T21:27:46.564Z,41.80
2023-03-30T21:30:22.752Z,42.13
2023-03-30T21:32:55.685Z,41.73
2023-03-30T21:35:30.097Z,40.63
2023-03-30T21:38:05.455Z,41.30
2023-03-30T21:40:43.142Z,40.77
2023-03-30T21:43:17.205Z,42.60
2023-03-30T21:45:57.242Z,42.63
2023-03-30T21:48:33.916Z,42.57
2023-03-30T21:51:09.177Z,41.43
2023-03-30T21:53:44.186Z,42.60
2023-03-30T21:56:18.601Z,41.77
2023-03-30T21:58:53.431Z,42.40
2023-03-30T22:01:29.898Z,42.23
2023-03-30T22:04:16.213Z,43.13
2023-03-30T22:07:06.521Z,43.10
2023-03-30T22:09:46.496Z,42.37
2023-03-30T22:12:26.269Z,42.17
2023-03-30T22:14:59.238Z,41.77
2023-03-30T22:17:42.959Z,42.77
2023-03-30T22:20:21.436Z,43.47
2023-03-30T22:23:05.516Z,42.40
2023-03-30T22:25:42.602Z,42.90
2023-03-30T22:28:38.140Z,44.23
2023-03-30T22:31:13.444Z,43.03
2023-03-30T22:33:54.257Z,45.10
2023-03-30T22:36:31.629Z,45.83
2023-03-30T22:39:46.005Z,46.47
2023-03-30T22:42:28.854Z,46.90
2023-03-30T22:45:21.744Z,46.60
2023-03-30T22:48:06.292Z,47.73
2023-03-30T22:50:56.528Z,47.70
2023-03-30T22:53:44.999Z,46.87
2023-03-30T22:56:18.797Z,47.40
2023-03-30T22:59:04.886Z,52.13
2023-03-30T23:01:38.395Z,48.60
2023-03-30T23:04:33.434Z,49.80
2023-03-30T23:07:09.673Z,49.93
2023-03-30T23:09:53.959Z,51.33
2023-03-30T23:12:27.001Z,51.57
2023-03-30T23:15:21.658Z,52.67
2023-03-30T23:18:08.931Z,51.77
2023-03-30T23:20:49.578Z,51.27
2023-03-30T23:23:24.451Z,50.63
2023-03-30T23:25:59.882Z,51.83
2023-03-30T23:28:36.353Z,52.73
2023-03-30T23:31:20.983Z,52.27
2023-03-30T23:33:56.380Z,50.50
2023-03-30T23:36:30.662Z,49.53
2023-03-30T23:39:07.465Z,50.63
2023-03-30T23:41:43.004Z,51.33
2023-03-30T23:44:17.337Z,50.80
2023-03-30T23:46:51.028Z,49.53
2023-03-30T23:49:24.930Z,51.17
2023-03-30T23:51:59.348Z,51.23
2023-03-30T23:54:38.922Z,50.17
2023-03-30T23:57:15.996Z,50.23
2023-03-30T23:59:49.992Z,49.77
